createdAt,value
2023-04-18T00:00:25.176Z,28.02
2023-04-18T00:05:27.754Z,28.30
2023-04-18T00:10:29.830Z,29.40
2023-04-18T00:15:32.241Z,28.70
2023-04-18T00:20:34.270Z,31.50
2023-04-18T00:25:36.313Z,27.25
2023-04-18T00:30:38.383Z,30.58
2023-04-18T00:35:40.503Z,32.35
2023-04-18T00:40:43.276Z,28.95
2023-04-18T00:45:45.420Z,27.63
2023-04-18T00:50:47.487Z,30.00
2023-04-18T00:55:49.685Z,26.60
2023-04-18T01:00:52.091Z,25.95
2023-04-18T01:05:54.866Z,28.15
2023-04-18T01:10:57.053Z,29.17
2023-04-18T01:15:59.301Z,24.65
2023-04-18T01:21:01.789Z,24.00
2023-04-18T01:26:03.844Z,25.38
2023-04-18T01:31:05.990Z,27.17
2023-04-18T01:36:11.219Z,30.80
2023-04-18T01:41:13.321Z,29.33
2023-04-18T01:46:17.764Z,26.23
2023-04-18T01:51:19.858Z,29.85
2023-04-18T01:56:22.205Z,25.58
2023-04-18T02:01:24.360Z,25.05
2023-04-18T02:06:26.890Z,24.08
2023-04-18T02:11:29.923Z,23.48
2023-04-18T02:16:32.106Z,22.30
2023-04-18T02:21:34.210Z,24.15
2023-04-18T02:26:36.447Z,23.23
2023-04-18T02:31:41.849Z,20.33
2023-04-18T02:36:44.074Z,21.90
2023-04-18T02:41:46.101Z,18.58
2023-04-18T02:46:48.267Z,21.92
2023-04-18T02:51:50.525Z,22.55
2023-04-18T02:56:54.561Z,19.63
2023-04-18T03:02:20.803Z,18.25
2023-04-18T03:07:28.521Z,19.63
2023-04-18T03:12:31.345Z,18.40
2023-04-18T03:17:33.906Z,19.38
2023-04-18T03:22:35.993Z,18.65
2023-04-18T03:27:38.144Z,21.27
2023-04-18T03:32:41.962Z,22.35
2023-04-18T03:37:44.303Z,19.42
2023-04-18T03:42:49.631Z,21.58
2023-04-18T03:47:52.048Z,17.13
2023-04-18T03:52:55.870Z,17.27
2023-04-18T03:57:59.126Z,18.58
2023-04-18T04:03:04.702Z,18.83
2023-04-18T04:08:07.315Z,16.73
2023-04-18T04:13:10.132Z,17.65
2023-04-18T04:18:15.252Z,18.17
2023-04-18T04:23:19.200Z,19.40
2023-04-18T04:28:23.279Z,18.10
2023-04-18T04:33:33.240Z,18.63
2023-04-18T04:38:40.512Z,16.50
2023-04-18T04:43:43.680Z,17.40
2023-04-18T04:48:49.656Z,18.40
2023-04-18T04:53:51.827Z,21.42
2023-04-18T04:58:55.955Z,18.08
2023-04-18T05:04:01.447Z,17.50
2023-04-18T05:09:03.662Z,17.65
2023-04-18T05:14:05.698Z,22.05
2023-04-18T05:19:07.847Z,17.17
2023-04-18T05:24:10.176Z,17.60
2023-04-18T05:29:12.295Z,17.55
2023-04-18T05:34:14.665Z,19.15
2023-04-18T05:39:17.050Z,20.38
2023-04-18T05:44:19.944Z,20.67
2023-04-18T05:49:22.261Z,23.20
2023-04-18T05:54:27.345Z,17.25
2023-04-18T05:59:29.471Z,19.77
2023-04-18T06:04:31.529Z,16.77
2023-04-18T06:09:34.015Z,17.70
2023-04-18T06:14:36.045Z,19.92
2023-04-18T06:19:39.539Z,17.33
2023-04-18T06:24:41.719Z,19.77
2023-04-18T06:29:43.906Z,16.50
2023-04-18T06:34:46.240Z,18.00
2023-04-18T06:39:48.336Z,17.38
2023-04-18T06:44:50.719Z,18.30
2023-04-18T06:49:52.874Z,20.02
2023-04-18T06:54:55.007Z,15.43
2023-04-18T06:59:57.226Z,19.25
2023-04-18T07:04:59.458Z,20.95
2023-04-18T07:10:01.925Z,17.73
2023-04-18T07:15:04.877Z,16.88
2023-04-18T07:20:07.590Z,15.98
2023-04-18T07:25:09.713Z,18.25
2023-04-18T07:30:12.044Z,16.98
2023-04-18T07:35:14.117Z,17.33
2023-04-18T07:40:16.648Z,16.48
2023-04-18T07:45:19.110Z,16.15
2023-04-18T07:50:21.230Z,16.00
2023-04-18T07:55:24.522Z,15.18
2023-04-18T08:00:26.880Z,14.50
2023-04-18T08:05:29.235Z,13.68
2023-04-18T08:10:31.256Z,15.25
2023-04-18T08:15:33.406Z,12.43
2023-04-18T08:20:37.226Z,13.45
2023-04-18T08:25:39.328Z,13.48
2023-04-18T08:30:42.348Z,15.15
2023-04-18T08:35:44.452Z,14.70
2023-04-18T08:40:47.069Z,18.10
2023-04-18T08:45:49.180Z,14.07
2023-04-18T08:50:57.080Z,12.57
2023-04-18T08:56:00.242Z,14.27
2023-04-18T09:01:02.460Z,13.77
2023-04-18T09:06:13.603Z,12.68
2023-04-18T09:16:46.581Z,14.27
2023-04-18T09:21:57.843Z,13.23
2023-04-18T09:27:01.241Z,13.73
2023-04-18T09:32:03.531Z,13.68
2023-04-18T09:37:12.298Z,12.43
2023-04-18T09:42:14.582Z,9.68
2023-04-18T09:47:16.680Z,14.43
2023-04-18T09:52:20.434Z,10.48
2023-04-18T09:57:26.865Z,12.18
2023-04-18T10:02:34.944Z,13.02
2023-04-18T10:07:38.022Z,11.25
2023-04-18T10:12:47.879Z,11.32
2023-04-18T10:18:04.179Z,9.25
2023-04-18T10:23:43.058Z,9.63
2023-04-18T10:28:56.405Z,13.45
2023-04-18T10:34:05.394Z,9.35
2023-04-18T10:39:22.439Z,8.13
2023-04-18T10:44:24.807Z,10.50
2023-04-18T10:49:30.266Z,10.75
2023-04-18T10:54:38.980Z,9.38
2023-04-18T10:59:42.967Z,7.10
2023-04-18T11:04:52.679Z,6.25
2023-04-18T11:09:54.922Z,6.30
2023-04-18T11:14:57.869Z,5.00
2023-04-18T11:20:11.447Z,6.97
2023-04-18T11:25:13.954Z,5.25
2023-04-18T11:30:16.092Z,4.53
2023-04-18T11:35:18.363Z,8.27
2023-04-18T11:40:20.407Z,6.57
2023-04-18T11:45:22.560Z,9.55
2023-04-18T11:50:25.550Z,7.30
2023-04-18T11:55:28.048Z,10.40
2023-04-18T12:00:39.406Z,9.02
2023-04-18T12:05:44.558Z,11.07
2023-04-18T12:10:48.688Z,12.38
2023-04-18T12:15:50.864Z,14.98
2023-04-18T12:20:56.688Z,8.77
2023-04-18T12:26:06.093Z,11.13
2023-04-18T12:31:08.181Z,12.75
2023-04-18T12:36:10.370Z,9.73
2023-04-18T12:41:12.591Z,12.32
2023-04-18T12:46:14.626Z,11.32
2023-04-18T12:51:16.672Z,9.48
2023-04-18T12:56:18.855Z,12.20
2023-04-18T13:01:21.106Z,11.20
2023-04-18T13:06:24.426Z,12.73
2023-04-18T13:11:28.487Z,13.82
2023-04-18T13:16:31.100Z,10.82
2023-04-18T13:21:33.483Z,10.10
2023-04-18T13:26:35.642Z,12.00
2023-04-18T13:31:37.806Z,11.13
2023-04-18T13:36:39.991Z,13.30
2023-04-18T13:41:43.341Z,13.05
2023-04-18T13:46:45.695Z,14.00
2023-04-18T13:51:47.832Z,11.95
2023-04-18T13:56:50.015Z,14.23
2023-04-18T14:01:53.554Z,13.68
2023-04-18T14:06:55.586Z,14.40
2023-04-18T14:11:58.356Z,16.17
2023-04-18T14:17:00.604Z,16.67
2023-04-18T14:22:02.660Z,13.50
2023-04-18T14:27:04.640Z,14.15
2023-04-18T14:32:07.229Z,12.45
2023-04-18T14:37:09.522Z,26.80
2023-04-18T14:42:11.626Z,13.82
2023-04-18T14:47:13.667Z,16.35
2023-04-18T14:52:15.784Z,17.98
2023-04-18T14:57:18.117Z,18.08
2023-04-18T15:02:21.089Z,15.38
2023-04-18T15:07:23.325Z,18.25
2023-04-18T15:12:25.665Z,14.88
2023-04-18T15:17:28.323Z,14.13
2023-04-18T15:22:30.430Z,17.65
2023-04-18T15:27:32.546Z,14.88
2023-04-18T15:32:34.631Z,15.27
2023-04-18T15:37:36.828Z,14.05
2023-04-18T15:42:39.307Z,14.23
2023-04-18T15:47:41.698Z,15.65
2023-04-18T15:52:44.080Z,16.90
2023-04-18T15:57:46.412Z,15.32
2023-04-18T16:02:49.336Z,19.27
2023-04-18T16:07:53.736Z,15.57
2023-04-18T16:12:56.054Z,17.50
2023-04-18T16:17:58.259Z,16.45
2023-04-18T16:23:00.756Z,15.10
2023-04-18T16:28:02.798Z,15.18
2023-04-18T16:33:04.951Z,15.38
2023-04-18T16:38:06.961Z,17.10
2023-04-18T16:43:09.134Z,14.00
2023-04-18T16:48:11.204Z,15.45
2023-04-18T16:53:13.400Z,15.13
2023-04-18T16:58:15.393Z,15.05
2023-04-18T17:03:17.509Z,17.02
2023-04-18T17:08:19.563Z,14.98
2023-04-18T17:13:26.672Z,17.63
2023-04-18T17:18:29.380Z,20.50
2023-04-18T17:23:32.956Z,17.95
2023-04-18T17:28:36.166Z,15.82
2023-04-18T17:33:38.259Z,18.55
2023-04-18T17:38:40.545Z,16.13
2023-04-18T17:43:43.324Z,17.65
2023-04-18T17:48:45.932Z,15.35
2023-04-18T17:53:48.151Z,16.38
2023-04-18T17:58:50.613Z,16.90
2023-04-18T18:03:54.084Z,19.23
2023-04-18T18:08:56.633Z,18.98
2023-04-18T18:13:59.226Z,20.35
2023-04-18T18:19:01.324Z,16.83
2023-04-18T18:24:03.574Z,17.48
2023-04-18T18:29:09.074Z,18.80
2023-04-18T18:34:11.359Z,20.65
2023-04-18T18:39:16.069Z,17.48
2023-04-18T18:44:18.513Z,18.33
2023-04-18T18:49:20.914Z,18.65
2023-04-18T18:54:23.027Z,18.40
2023-04-18T18:59:25.186Z,17.80
2023-04-18T19:04:27.366Z,19.15
2023-04-18T19:09:29.496Z,17.08
2023-04-18T19:14:31.531Z,19.13
2023-04-18T19:19:33.615Z,17.98
2023-04-18T19:24:35.649Z,18.35
2023-04-18T19:29:37.722Z,21.40
2023-04-18T19:34:40.090Z,19.17
2023-04-18T19:39:42.216Z,22.05
2023-04-18T19:44:44.818Z,19.45
2023-04-18T19:49:46.927Z,18.85
2023-04-18T19:54:49.045Z,19.30
2023-04-18T19:59:51.318Z,17.95
2023-04-18T20:04:53.632Z,17.17
2023-04-18T20:09:56.252Z,18.50
2023-04-18T20:14:58.931Z,16.08
2023-04-18T20:20:01.487Z,22.20
2023-04-18T20:25:03.998Z,16.52
2023-04-18T20:30:06.511Z,17.52
2023-04-18T20:35:09.318Z,16.95
2023-04-18T20:40:11.572Z,18.52
2023-04-18T20:45:13.886Z,15.77
2023-04-18T20:50:18.080Z,15.20
2023-04-18T20:55:20.695Z,16.50
2023-04-18T21:00:23.217Z,17.55
2023-04-18T21:05:25.360Z,14.50
2023-04-18T21:10:27.484Z,15.00
2023-04-18T21:15:29.824Z,15.93
2023-04-18T21:20:34.109Z,16.80
2023-04-18T21:25:36.164Z,15.63
2023-04-18T21:30:38.185Z,15.55
2023-04-18T21:35:40.247Z,16.85
2023-04-18T21:40:42.264Z,17.40
2023-04-18T21:45:45.996Z,17.58
2023-04-18T21:50:54.599Z,21.33
2023-04-18T21:55:56.552Z,14.25
2023-04-18T22:00:58.999Z,16.95
2023-04-18T22:06:01.398Z,15.88
2023-04-18T22:11:04.593Z,16.52
2023-04-18T22:16:08.025Z,17.85
2023-04-18T22:21:10.144Z,15.02
2023-04-18T22:26:12.141Z,17.42
2023-04-18T22:31:14.250Z,15.68
2023-04-18T22:36:16.358Z,15.50
2023-04-18T22:41:18.328Z,16.15
2023-04-18T22:46:20.875Z,15.48
2023-04-18T22:51:23.402Z,20.80
2023-04-18T22:56:25.528Z,16.60
2023-04-18T23:01:27.612Z,16.30
2023-04-18T23:06:30.205Z,15.77
2023-04-18T23:11:32.186Z,19.02
2023-04-18T23:16:34.799Z,17.35
2023-04-18T23:21:36.958Z,19.85
2023-04-18T23:26:40.070Z,16.95
2023-04-18T23:31:42.111Z,20.25
2023-04-18T23:36:44.356Z,17.75
2023-04-18T23:41:46.331Z,19.75
2023-04-18T23:46:49.086Z,19.45
2023-04-18T23:51:51.330Z,21.17
2023-04-18T23:56:53.465Z,22.40
